Time;durP1;ratioP1;P1;durP2;ratioP2;P2;SDS_P1;SDS_P2;PMS_P1;PMS_P2;Temp;Humidity;BMP_temperature;BMP_pressure;BME280_temperature;BME280_humidity;BME280_pressure;Samples;Min_cycle;Max_cycle;Signal;HPM_P1;HPM_P2
2023/06/15 00:02:11;;;;;;;26.30;12.77;;;;;;;;;;5014572;28;20080;-79
2023/06/15 00:04:37;;;;;;;32.35;13.13;;;;;;;;;;5014916;28;20428;-80
2023/06/15 00:07:02;;;;;;;27.90;12.52;;;;;;;;;;5015918;28;20088;-79
2023/06/15 00:09:27;;;;;;;26.40;12.70;;;;;;;;;;5014834;28;20022;-80
2023/06/15 00:11:53;;;;;;;30.83;13.73;;;;;;;;;;5014501;28;20072;-79
2023/06/15 00:14:18;;;;;;;26.55;13.88;;;;;;;;;;5016096;28;20128;-80
2023/06/15 00:16:45;;;;;;;28.70;13.02;;;;;;;;;;5015741;28;20022;-80
2023/06/15 00:19:11;;;;;;;32.88;14.23;;;;;;;;;;5015414;28;20032;-79
2023/06/15 00:21:40;;;;;;;28.92;14.27;;;;;;;;;;5015731;28;20112;-79
2023/06/15 00:24:07;;;;;;;33.00;13.85;;;;;;;;;;5014557;28;20044;-79
2023/06/15 00:26:32;;;;;;;35.28;15.10;;;;;;;;;;5014117;28;20026;-79
2023/06/15 00:28:58;;;;;;;29.52;13.93;;;;;;;;;;5014421;28;20025;-79
2023/06/15 00:31:23;;;;;;;33.53;15.32;;;;;;;;;;5014367;28;20029;-80
2023/06/15 00:33:49;;;;;;;27.70;14.18;;;;;;;;;;5015506;28;20462;-79
2023/06/15 00:36:14;;;;;;;25.83;14.95;;;;;;;;;;5015470;28;20026;-79
2023/06/15 00:38:40;;;;;;;42.95;14.60;;;;;;;;;;5015474;28;20033;-79
2023/06/15 00:41:05;;;;;;;28.98;15.05;;;;;;;;;;5015409;28;20068;-80
2023/06/15 00:43:31;;;;;;;34.97;15.40;;;;;;;;;;5015606;28;20448;-79
2023/06/15 00:45:56;;;;;;;41.30;15.82;;;;;;;;;;5015331;28;20487;-79
2023/06/15 00:48:22;;;;;;;37.95;15.50;;;;;;;;;;5015598;28;20375;-79
2023/06/15 00:50:47;;;;;;;34.00;16.75;;;;;;;;;;5014088;28;20364;-80
2023/06/15 00:53:14;;;;;;;46.33;15.45;;;;;;;;;;5015224;28;20034;-79
2023/06/15 00:55:40;;;;;;;33.13;16.52;;;;;;;;;;5030190;28;20087;-79
2023/06/15 00:58:05;;;;;;;36.72;15.85;;;;;;;;;;5015417;28;20026;-79
2023/06/15 01:00:37;;;;;;;37.50;16.17;;;;;;;;;;5030290;28;20030;-80
2023/06/15 01:03:04;;;;;;;35.58;16.83;;;;;;;;;;4997545;28;20045;-80
2023/06/15 01:05:30;;;;;;;38.40;16.77;;;;;;;;;;5014174;28;20026;-80
2023/06/15 01:07:55;;;;;;;34.90;16.27;;;;;;;;;;5013767;28;20153;-79
2023/06/15 01:10:23;;;;;;;36.25;16.77;;;;;;;;;;5014017;28;20482;-80
2023/06/15 01:12:50;;;;;;;42.00;17.15;;;;;;;;;;5013999;28;20029;-80
2023/06/15 01:15:16;;;;;;;49.88;17.02;;;;;;;;;;5013705;28;20522;-79
2023/06/15 01:17:45;;;;;;;43.20;16.77;;;;;;;;;;5014814;28;20113;-79
2023/06/15 01:20:17;;;;;;;37.80;16.02;;;;;;;;;;5030132;28;20093;-80
2023/06/15 01:22:55;;;;;;;34.55;17.00;;;;;;;;;;5016310;28;20081;-79
2023/06/15 01:25:29;;;;;;;36.17;16.30;;;;;;;;;;5018161;28;20057;-80
2023/06/15 01:28:01;;;;;;;49.35;17.73;;;;;;;;;;5017007;28;20038;-79
2023/06/15 01:30:32;;;;;;;42.95;17.40;;;;;;;;;;4999594;28;20060;-79
2023/06/15 01:32:58;;;;;;;36.70;17.98;;;;;;;;;;5002802;28;20038;-79
2023/06/15 01:35:23;;;;;;;41.22;18.63;;;;;;;;;;5015622;28;20396;-79
2023/06/15 01:37:49;;;;;;;42.35;18.33;;;;;;;;;;5014324;28;20448;-80
2023/06/15 01:40:14;;;;;;;38.50;18.55;;;;;;;;;;5014539;28;20029;-79
2023/06/15 01:42:40;;;;;;;43.53;17.85;;;;;;;;;;5029618;28;20080;-79
2023/06/15 01:45:06;;;;;;;40.58;18.20;;;;;;;;;;5014377;28;20084;-79
2023/06/15 01:47:31;;;;;;;43.97;17.25;;;;;;;;;;5013403;28;20026;-79
2023/06/15 01:49:57;;;;;;;45.58;19.10;;;;;;;;;;5013205;28;20337;-80
2023/06/15 01:52:22;;;;;;;39.05;17.15;;;;;;;;;;5012877;28;20060;-79
2023/06/15 01:54:48;;;;;;;46.80;17.38;;;;;;;;;;5014284;28;20371;-79
2023/06/15 01:57:13;;;;;;;45.83;17.15;;;;;;;;;;5014733;28;20148;-79
2023/06/15 01:59:39;;;;;;;39.85;16.60;;;;;;;;;;5029382;28;20040;-79
2023/06/15 02:02:04;;;;;;;37.35;17.38;;;;;;;;;;5013977;28;20129;-80
2023/06/15 02:04:30;;;;;;;46.83;17.42;;;;;;;;;;5014205;28;20061;-79
2023/06/15 02:06:57;;;;;;;46.28;18.13;;;;;;;;;;5014080;28;20065;-79
2023/06/15 02:09:22;;;;;;;49.20;16.85;;;;;;;;;;5029288;28;20440;-79
2023/06/15 02:11:48;;;;;;;51.10;18.13;;;;;;;;;;5014071;28;20105;-79
2023/06/15 02:14:17;;;;;;;43.00;17.45;;;;;;;;;;5029319;28;20036;-79
2023/06/15 02:16:43;;;;;;;48.08;16.45;;;;;;;;;;5014274;28;20478;-80
2023/06/15 02:19:08;;;;;;;39.63;17.88;;;;;;;;;;5012699;28;20030;-80
2023/06/15 02:21:33;;;;;;;44.97;18.20;;;;;;;;;;5014060;28;20466;-80
2023/06/15 02:23:59;;;;;;;41.92;17.20;;;;;;;;;;5013880;28;20542;-79
2023/06/15 02:26:25;;;;;;;48.63;17.88;;;;;;;;;;5014201;28;20037;-79
2023/06/15 02:28:51;;;;;;;52.60;18.30;;;;;;;;;;5013956;28;20053;-80
2023/06/15 02:31:16;;;;;;;65.20;19.10;;;;;;;;;;5014142;28;20069;-79
2023/06/15 02:33:42;;;;;;;48.85;19.25;;;;;;;;;;5013846;28;20110;-79
2023/06/15 02:36:07;;;;;;;47.65;19.13;;;;;;;;;;5013482;28;20440;-79
2023/06/15 02:38:33;;;;;;;50.90;20.25;;;;;;;;;;5012681;28;20040;-79
2023/06/15 02:40:58;;;;;;;53.45;19.38;;;;;;;;;;5012671;28;20079;-79
2023/06/15 02:43:24;;;;;;;42.72;19.42;;;;;;;;;;5000135;28;20136;-78
2023/06/15 02:45:49;;;;;;;59.13;20.67;;;;;;;;;;5017646;28;20104;-79
2023/06/15 02:48:15;;;;;;;48.97;19.42;;;;;;;;;;5016615;28;20117;-78
2023/06/15 02:50:41;;;;;;;47.13;19.40;;;;;;;;;;5016161;28;20104;-78
2023/06/15 02:53:06;;;;;;;53.10;20.20;;;;;;;;;;5017543;28;20026;-79
2023/06/15 02:55:33;;;;;;;48.60;18.27;;;;;;;;;;5017655;28;20067;-79
2023/06/15 02:57:58;;;;;;;46.58;18.30;;;;;;;;;;5032532;28;20025;-79
2023/06/15 03:00:25;;;;;;;48.50;18.08;;;;;;;;;;5016070;28;20060;-78
2023/06/15 03:02:52;;;;;;;49.40;18.55;;;;;;;;;;5032245;28;20133;-79
2023/06/15 03:05:18;;;;;;;53.50;19.45;;;;;;;;;;5015831;28;20099;-78
2023/06/15 03:07:43;;;;;;;47.15;18.38;;;;;;;;;;5016092;28;20460;-81
2023/06/15 03:10:09;;;;;;;47.17;18.80;;;;;;;;;;5016049;28;20022;-80
2023/06/15 03:12:34;;;;;;;43.15;18.67;;;;;;;;;;5017152;28;20026;-80
2023/06/15 03:15:01;;;;;;;54.22;20.45;;;;;;;;;;5017068;28;20037;-80
2023/06/15 03:17:26;;;;;;;40.97;20.10;;;;;;;;;;5015853;28;20036;-81
2023/06/15 03:19:52;;;;;;;50.85;21.10;;;;;;;;;;5016996;28;20120;-80
2023/06/15 03:22:17;;;;;;;48.55;22.00;;;;;;;;;;5017142;28;20129;-81
2023/06/15 03:24:43;;;;;;;55.83;21.50;;;;;;;;;;5017144;28;20224;-78
2023/06/15 03:27:10;;;;;;;57.47;21.73;;;;;;;;;;5017385;28;20025;-79
2023/06/15 03:29:36;;;;;;;48.17;23.45;;;;;;;;;;5015725;28;20088;-80
2023/06/15 03:32:04;;;;;;;55.25;21.02;;;;;;;;;;5015591;28;20433;-80
2023/06/15 03:34:30;;;;;;;54.33;20.73;;;;;;;;;;5016476;28;20756;-80
2023/06/15 03:36:55;;;;;;;55.03;20.08;;;;;;;;;;5016751;28;20116;-80
2023/06/15 03:39:22;;;;;;;48.88;18.85;;;;;;;;;;5016708;28;20026;-80
2023/06/15 03:41:48;;;;;;;50.47;20.15;;;;;;;;;;5016940;28;20028;-80
2023/06/15 03:44:13;;;;;;;59.72;21.05;;;;;;;;;;5016531;28;20363;-80
2023/06/15 03:46:41;;;;;;;56.25;19.60;;;;;;;;;;5016536;28;20061;-79
2023/06/15 03:49:06;;;;;;;58.10;20.42;;;;;;;;;;5016448;28;20041;-79
2023/06/15 03:51:31;;;;;;;48.33;19.98;;;;;;;;;;4999165;28;20026;-80
2023/06/15 03:53:57;;;;;;;60.00;20.05;;;;;;;;;;5016085;28;20030;-80
2023/06/15 03:56:22;;;;;;;57.63;21.38;;;;;;;;;;4999093;28;20029;-79
2023/06/15 03:58:48;;;;;;;57.25;22.27;;;;;;;;;;5015089;28;20022;-79
2023/06/15 04:01:13;;;;;;;72.53;21.23;;;;;;;;;;5014882;28;20124;-79
2023/06/15 04:03:39;;;;;;;56.17;21.70;;;;;;;;;;4998329;28;20030;-80
2023/06/15 04:06:05;;;;;;;53.92;21.45;;;;;;;;;;5016132;28;20583;-80
2023/06/15 04:08:34;;;;;;;63.00;22.75;;;;;;;;;;5014858;28;20033;-80
2023/06/15 04:10:59;;;;;;;55.20;22.33;;;;;;;;;;5015985;28;20452;-79
2023/06/15 04:13:25;;;;;;;59.08;22.58;;;;;;;;;;5015997;28;20116;-80
2023/06/15 04:15:50;;;;;;;63.55;22.42;;;;;;;;;;5016228;28;20180;-80
2023/06/15 04:18:16;;;;;;;62.25;22.83;;;;;;;;;;5015622;28;20030;-78
2023/06/15 04:20:43;;;;;;;69.28;23.88;;;;;;;;;;5031191;28;20057;-79
2023/06/15 04:23:09;;;;;;;68.10;23.75;;;;;;;;;;5030910;28;20038;-79
2023/06/15 04:25:35;;;;;;;53.97;22.58;;;;;;;;;;4998369;28;20036;-80
2023/06/15 04:28:02;;;;;;;64.70;23.70;;;;;;;;;;4998389;28;20026;-79
2023/06/15 04:30:29;;;;;;;59.63;23.27;;;;;;;;;;5014746;28;20040;-80
2023/06/15 04:32:59;;;;;;;49.85;22.98;;;;;;;;;;5015559;28;20105;-80
2023/06/15 04:35:28;;;;;;;53.00;23.17;;;;;;;;;;5015511;28;20446;-80
2023/06/15 04:37:56;;;;;;;62.57;24.17;;;;;;;;;;5030425;28;20033;-80
2023/06/15 04:40:22;;;;;;;45.33;22.20;;;;;;;;;;5015593;28;20080;-79
2023/06/15 04:42:48;;;;;;;50.75;23.00;;;;;;;;;;5015463;28;20026;-78
2023/06/15 04:45:13;;;;;;;45.65;23.40;;;;;;;;;;5014873;28;20029;-87
2023/06/15 04:47:39;;;;;;;51.25;23.05;;;;;;;;;;5014655;28;20013;-89
2023/06/15 04:50:05;;;;;;;47.75;22.77;;;;;;;;;;5031534;28;20417;-89
2023/06/15 04:52:32;;;;;;;48.33;22.30;;;;;;;;;;5041978;28;20089;-87
2023/06/15 04:54:57;;;;;;;45.88;22.80;;;;;;;;;;5027772;28;20060;-87
2023/06/15 04:57:23;;;;;;;53.45;23.75;;;;;;;;;;5038692;28;20046;-87
2023/06/15 04:59:48;;;;;;;54.58;24.73;;;;;;;;;;5051347;28;20097;-86
2023/06/15 05:02:14;;;;;;;52.75;23.92;;;;;;;;;;5006147;28;20049;-88
2023/06/15 05:04:39;;;;;;;47.75;23.70;;;;;;;;;;5010884;28;20053;-85
2023/06/15 05:07:05;;;;;;;49.67;25.20;;;;;;;;;;5017062;28;20069;-86
2023/06/15 05:09:30;;;;;;;48.83;23.65;;;;;;;;;;5015963;28;20029;-87
2023/06/15 05:11:56;;;;;;;46.15;22.35;;;;;;;;;;5017249;28;20065;-88
2023/06/15 05:14:22;;;;;;;45.95;23.52;;;;;;;;;;5025292;28;20029;-87
2023/06/15 05:16:47;;;;;;;44.30;23.30;;;;;;;;;;4997132;28;20032;-87
2023/06/15 05:19:13;;;;;;;44.58;21.95;;;;;;;;;;5011630;28;20057;-86
2023/06/15 05:21:39;;;;;;;49.60;21.73;;;;;;;;;;5011698;28;20468;-85
2023/06/15 05:24:05;;;;;;;51.85;21.05;;;;;;;;;;5011765;28;20034;-86
2023/06/15 05:26:30;;;;;;;40.22;21.52;;;;;;;;;;5012854;28;20095;-87
2023/06/15 05:28:56;;;;;;;39.50;21.02;;;;;;;;;;5002897;28;20078;-85
2023/06/15 05:31:21;;;;;;;45.00;20.48;;;;;;;;;;5019625;28;20034;-86
2023/06/15 05:33:47;;;;;;;36.47;20.30;;;;;;;;;;5027341;28;20038;-87
2023/06/15 05:36:12;;;;;;;40.25;20.27;;;;;;;;;;5014122;28;20448;-87
2023/06/15 05:38:38;;;;;;;36.72;18.38;;;;;;;;;;5010115;28;20037;-86
2023/06/15 05:41:03;;;;;;;38.55;18.23;;;;;;;;;;5010801;28;20033;-86
2023/06/15 05:43:28;;;;;;;36.03;17.50;;;;;;;;;;5015181;28;20040;-87
2023/06/15 05:45:54;;;;;;;40.42;18.00;;;;;;;;;;5008702;28;20041;-84
2023/06/15 05:48:20;;;;;;;30.08;17.27;;;;;;;;;;5009589;28;20025;-85
2023/06/15 05:50:46;;;;;;;31.10;17.42;;;;;;;;;;4998564;28;20104;-86
2023/06/15 05:53:12;;;;;;;38.55;17.73;;;;;;;;;;5009536;28;20098;-90
2023/06/15 05:55:37;;;;;;;31.20;16.83;;;;;;;;;;5011065;28;20133;-86
2023/06/15 05:58:03;;;;;;;38.08;17.40;;;;;;;;;;5011507;28;20064;-85
2023/06/15 06:00:30;;;;;;;34.33;18.25;;;;;;;;;;4996073;28;20084;-88
2023/06/15 06:03:01;;;;;;;29.80;17.10;;;;;;;;;;4994443;28;20044;-86
2023/06/15 06:05:26;;;;;;;28.17;16.75;;;;;;;;;;5021754;28;20422;-87
2023/06/15 06:07:52;;;;;;;28.73;17.13;;;;;;;;;;5013227;28;20034;-86
2023/06/15 06:10:17;;;;;;;35.38;16.48;;;;;;;;;;5026852;28;20030;-85
2023/06/15 06:12:52;;;;;;;28.10;16.27;;;;;;;;;;5012564;28;20103;-87
2023/06/15 06:15:20;;;;;;;27.33;15.88;;;;;;;;;;5010830;28;20143;-86
2023/06/15 06:18:02;;;;;;;25.63;15.32;;;;;;;;;;4998536;28;20030;-88
2023/06/15 06:20:28;;;;;;;30.67;14.05;;;;;;;;;;5008555;28;20117;-86
2023/06/15 06:22:53;;;;;;;26.52;14.30;;;;;;;;;;5010843;28;20117;-85
2023/06/15 06:25:19;;;;;;;24.60;13.18;;;;;;;;;;5011082;28;20029;-87
2023/06/15 06:27:44;;;;;;;24.08;12.10;;;;;;;;;;5015979;28;20103;-88
2023/06/15 06:30:10;;;;;;;24.05;12.20;;;;;;;;;;5019402;28;20045;-85
2023/06/15 06:32:36;;;;;;;23.63;11.90;;;;;;;;;;5015340;28;20045;-86
2023/06/15 06:35:03;;;;;;;24.48;12.18;;;;;;;;;;4997393;28;20459;-86
2023/06/15 06:37:28;;;;;;;23.75;12.15;;;;;;;;;;5020904;28;20026;-85
2023/06/15 06:39:54;;;;;;;21.77;12.18;;;;;;;;;;4981932;28;20014;-87
2023/06/15 06:42:19;;;;;;;24.35;11.88;;;;;;;;;;5027779;28;20541;-87
2023/06/15 06:44:45;;;;;;;22.75;11.45;;;;;;;;;;5038989;28;20514;-88
2023/06/15 06:47:10;;;;;;;30.38;13.20;;;;;;;;;;4997117;28;20022;-85
2023/06/15 06:49:36;;;;;;;20.63;12.70;;;;;;;;;;5018058;28;20124;-87
2023/06/15 06:52:01;;;;;;;24.10;15.23;;;;;;;;;;5002226;28;20034;-83
2023/06/15 06:54:26;;;;;;;25.17;15.70;;;;;;;;;;5019151;28;20591;-91
2023/06/15 06:56:54;;;;;;;28.95;15.25;;;;;;;;;;5030839;28;20332;-82
2023/06/15 06:59:25;;;;;;;27.83;14.32;;;;;;;;;;4992170;28;20096;-81
2023/06/15 07:01:50;;;;;;;20.52;13.82;;;;;;;;;;5024834;28;20049;-83
2023/06/15 07:04:16;;;;;;;28.75;14.20;;;;;;;;;;5032651;28;20459;-83
2023/06/15 07:06:41;;;;;;;25.88;15.52;;;;;;;;;;5011988;28;20029;-85
2023/06/15 07:09:07;;;;;;;31.80;15.77;;;;;;;;;;5011467;28;20033;-85
2023/06/15 07:11:32;;;;;;;26.70;16.10;;;;;;;;;;5030317;28;20036;-86
2023/06/15 07:13:58;;;;;;;22.98;15.45;;;;;;;;;;5031420;28;20029;-84
2023/06/15 07:16:23;;;;;;;27.45;17.40;;;;;;;;;;5032440;28;20037;-84
2023/06/15 07:18:49;;;;;;;31.80;20.52;;;;;;;;;;5030890;28;20025;-84
2023/06/15 07:21:14;;;;;;;34.05;21.05;;;;;;;;;;5033549;28;20077;-85
2023/06/15 07:23:40;;;;;;;36.78;20.52;;;;;;;;;;5023759;28;20077;-88
2023/06/15 07:26:05;;;;;;;28.88;20.35;;;;;;;;;;5024853;28;20044;-87
2023/06/15 07:28:31;;;;;;;32.38;20.48;;;;;;;;;;5023189;28;20060;-86
2023/06/15 07:30:56;;;;;;;29.02;18.27;;;;;;;;;;5032262;28;20036;-89
2023/06/15 07:33:22;;;;;;;30.02;17.10;;;;;;;;;;5033337;28;20048;-87
2023/06/15 07:35:47;;;;;;;32.22;17.70;;;;;;;;;;5052034;28;20021;-88
2023/06/15 07:38:14;;;;;;;26.05;17.90;;;;;;;;;;5055185;28;20025;-89
2023/06/15 07:40:40;;;;;;;34.88;17.58;;;;;;;;;;5053931;28;20029;-89
2023/06/15 07:43:05;;;;;;;26.42;17.50;;;;;;;;;;5048253;28;20032;-89
2023/06/15 07:45:31;;;;;;;26.58;18.38;;;;;;;;;;5033625;28;20025;-88
2023/06/15 07:47:56;;;;;;;28.70;18.50;;;;;;;;;;4998274;28;20176;-89
2023/06/15 07:50:21;;;;;;;25.73;18.35;;;;;;;;;;5020474;28;20030;-90
2023/06/15 07:52:49;;;;;;;26.80;17.35;;;;;;;;;;5020880;28;20029;-90
2023/06/15 07:55:14;;;;;;;26.23;18.70;;;;;;;;;;5049415;28;20029;-89
2023/06/15 07:57:40;;;;;;;31.33;18.50;;;;;;;;;;5054075;28;20123;-88
2023/06/15 08:00:06;;;;;;;30.23;18.15;;;;;;;;;;5026038;28;20029;-89
2023/06/15 08:02:31;;;;;;;31.80;19.48;;;;;;;;;;4993121;28;20046;-87
2023/06/15 08:04:57;;;;;;;24.40;18.20;;;;;;;;;;5026520;28;20039;-86
2023/06/15 08:07:22;;;;;;;30.33;18.55;;;;;;;;;;5051675;28;20383;-91
2023/06/15 08:09:48;;;;;;;31.42;19.13;;;;;;;;;;5034994;28;20485;-89
2023/06/15 08:12:14;;;;;;;25.48;18.92;;;;;;;;;;5018524;28;20116;-87
2023/06/15 08:14:39;;;;;;;27.67;18.10;;;;;;;;;;5018055;28;20475;-89
2023/06/15 08:17:06;;;;;;;32.90;20.00;;;;;;;;;;5034170;28;20335;-88
2023/06/15 08:19:32;;;;;;;33.97;18.88;;;;;;;;;;5027044;28;20037;-85
2023/06/15 08:21:57;;;;;;;27.02;18.63;;;;;;;;;;5015972;28;20029;-89
2023/06/15 08:24:23;;;;;;;25.75;17.98;;;;;;;;;;5016802;28;20030;-87
2023/06/15 08:26:48;;;;;;;24.30;17.98;;;;;;;;;;5017795;28;20025;-88
2023/06/15 08:29:15;;;;;;;29.88;18.27;;;;;;;;;;4999176;28;20311;-87
2023/06/15 08:31:40;;;;;;;32.03;21.83;;;;;;;;;;4983216;28;20034;-87
2023/06/15 08:34:09;;;;;;;30.40;21.77;;;;;;;;;;5016658;28;20128;-82
2023/06/15 08:36:37;;;;;;;33.63;23.33;;;;;;;;;;4994373;28;20022;-82
2023/06/15 08:39:03;;;;;;;35.63;24.10;;;;;;;;;;5008192;28;20072;-85
2023/06/15 08:41:29;;;;;;;38.03;24.55;;;;;;;;;;5010521;28;20058;-82
2023/06/15 08:43:54;;;;;;;35.25;24.00;;;;;;;;;;4999984;28;20030;-88
2023/06/15 08:46:23;;;;;;;34.65;23.80;;;;;;;;;;4981036;28;20044;-89
2023/06/15 08:48:49;;;;;;;41.13;23.80;;;;;;;;;;5034901;28;20474;-86
2023/06/15 08:51:14;;;;;;;37.92;22.88;;;;;;;;;;5050403;28;20056;-85
2023/06/15 08:54:01;;;;;;;39.67;24.52;;;;;;;;;;5035499;28;20034;-86
2023/06/15 08:56:31;;;;;;;40.97;24.60;;;;;;;;;;5013211;28;20051;-86
2023/06/15 08:58:57;;;;;;;37.55;23.55;;;;;;;;;;5018487;28;20041;-88
2023/06/15 09:01:23;;;;;;;33.85;22.58;;;;;;;;;;5019223;28;20037;-87
2023/06/15 09:03:50;;;;;;;34.05;22.40;;;;;;;;;;5030534;28;20049;-85
2023/06/15 09:06:16;;;;;;;35.58;22.85;;;;;;;;;;5020474;28;20026;-88
2023/06/15 09:08:46;;;;;;;35.65;22.67;;;;;;;;;;5018249;28;20033;-86
2023/06/15 09:11:12;;;;;;;35.72;21.77;;;;;;;;;;5053088;28;20095;-89
2023/06/15 09:13:37;;;;;;;32.53;21.85;;;;;;;;;;5035203;28;20029;-89
2023/06/15 09:16:03;;;;;;;35.92;22.88;;;;;;;;;;5034869;28;20063;-87
2023/06/15 09:18:29;;;;;;;36.30;22.20;;;;;;;;;;5036592;28;20096;-89
2023/06/15 09:20:58;;;;;;;35.22;21.95;;;;;;;;;;5037944;28;20392;-87
2023/06/15 09:23:24;;;;;;;;;;;;;;;;;;5024068;28;20068;-88
2023/06/15 09:25:52;;;;;;;36.78;22.88;;;;;;;;;;5056114;28;19920;-90
2023/06/15 09:28:26;;;;;;;35.43;23.40;;;;;;;;;;5024191;28;20029;-87
2023/06/15 09:30:56;;;;;;;35.65;23.30;;;;;;;;;;5071476;28;20112;-88
2023/06/15 09:33:21;;;;;;;;;;;;;;;;;;5032601;28;20025;-85
2023/06/15 09:35:57;;;;;;;38.22;24.10;;;;;;;;;;5036509;28;19948;-89
2023/06/15 09:38:27;;;;;;;34.97;23.90;;;;;;;;;;5053551;28;20029;-87
2023/06/15 09:40:55;;;;;;;35.25;23.85;;;;;;;;;;5024229;28;20032;-88
2023/06/15 09:43:20;;;;;;;38.92;24.80;;;;;;;;;;5056060;28;20033;-87
2023/06/15 09:45:52;;;;;;;33.58;23.02;;;;;;;;;;5049047;28;20087;-87
2023/06/15 09:48:18;;;;;;;32.58;23.00;;;;;;;;;;5022501;28;20038;-87
2023/06/15 09:50:55;;;;;;;32.95;22.52;;;;;;;;;;5061125;28;20030;-90
2023/06/15 09:53:22;;;;;;;34.95;22.23;;;;;;;;;;5026985;28;20036;-90
2023/06/15 09:55:48;;;;;;;32.83;21.42;;;;;;;;;;5022123;28;20033;-91
2023/06/15 09:58:13;;;;;;;26.85;20.08;;;;;;;;;;5036105;28;20092;-87
2023/06/15 10:00:39;;;;;;;31.98;19.88;;;;;;;;;;5048916;28;20025;-85
2023/06/15 10:03:08;;;;;;;29.23;20.60;;;;;;;;;;5032291;28;20045;-87
2023/06/15 10:05:35;;;;;;;38.88;20.48;;;;;;;;;;5020132;28;20420;-86
2023/06/15 10:08:04;;;;;;;29.70;20.10;;;;;;;;;;5017949;28;20025;-88
2023/06/15 10:10:30;;;;;;;33.90;20.48;;;;;;;;;;5040669;28;20052;-85
2023/06/15 10:12:56;;;;;;;32.35;20.13;;;;;;;;;;5042884;28;20375;-86
2023/06/15 10:15:21;;;;;;;38.67;21.10;;;;;;;;;;4991269;28;20030;-85
2023/06/15 10:17:48;;;;;;;34.47;22.65;;;;;;;;;;5026649;28;20083;-88
2023/06/15 10:20:16;;;;;;;28.00;20.08;;;;;;;;;;5033375;28;20039;-89
2023/06/15 10:22:51;;;;;;;30.52;20.80;;;;;;;;;;5061213;28;20103;-88
2023/06/15 10:25:18;;;;;;;29.70;20.45;;;;;;;;;;5058143;28;20051;-90
2023/06/15 10:27:44;;;;;;;30.60;20.25;;;;;;;;;;5041151;28;20025;-88
2023/06/15 10:30:13;;;;;;;29.15;20.67;;;;;;;;;;5040098;28;20128;-90
2023/06/15 10:32:55;;;;;;;33.40;20.47;;;;;;;;;;5024703;28;20033;-89
2023/06/15 10:35:33;;;;;;;34.40;20.17;;;;;;;;;;5055853;28;20021;-88
2023/06/15 10:38:14;;;;;;;29.88;19.65;;;;;;;;;;5021415;28;20033;-91
2023/06/15 10:40:42;;;;;;;26.70;19.38;;;;;;;;;;5023836;28;20478;-89
2023/06/15 10:43:08;;;;;;;30.63;20.42;;;;;;;;;;5003777;28;20034;-90
2023/06/15 10:45:36;;;;;;;30.02;20.73;;;;;;;;;;5022957;28;20045;-87
2023/06/15 10:48:02;;;;;;;36.97;20.02;;;;;;;;;;5044819;28;20393;-90
2023/06/15 10:50:37;;;;;;;35.42;20.08;;;;;;;;;;5022088;28;20036;-89
2023/06/15 10:53:03;;;;;;;31.77;20.63;;;;;;;;;;5054887;28;20128;-88
2023/06/15 10:55:28;;;;;;;27.10;19.42;;;;;;;;;;5024380;28;20068;-91
2023/06/15 10:58:15;;;;;;;28.98;20.35;;;;;;;;;;5053012;28;20432;-86
2023/06/15 11:00:44;;;;;;;32.78;20.70;;;;;;;;;;5034866;28;20029;-90
2023/06/15 11:03:22;;;;;;;32.83;19.90;;;;;;;;;;5041250;28;20113;-89
2023/06/15 11:05:48;;;;;;;33.10;19.55;;;;;;;;;;5027485;28;20017;-90
2023/06/15 11:08:19;;;;;;;32.05;19.30;;;;;;;;;;5033994;28;20032;-89
2023/06/15 11:10:45;;;;;;;28.33;19.58;;;;;;;;;;5059756;28;20025;-89
2023/06/15 11:13:12;;;;;;;28.92;19.58;;;;;;;;;;5046548;28;20037;-88
2023/06/15 11:15:38;;;;;;;25.20;18.88;;;;;;;;;;5057617;28;20117;-90
2023/06/15 11:18:12;;;;;;;26.77;19.08;;;;;;;;;;5062381;28;20072;-88
2023/06/15 11:20:44;;;;;;;28.25;19.50;;;;;;;;;;5029400;28;20022;-89
2023/06/15 11:23:34;;;;;;;25.75;18.33;;;;;;;;;;5059175;28;20091;-91
2023/06/15 11:26:01;;;;;;;29.17;19.38;;;;;;;;;;5057935;28;20061;-90
2023/06/15 11:28:31;;;;;;;26.67;18.50;;;;;;;;;;5029047;28;20116;-88
2023/06/15 11:31:01;;;;;;;27.85;19.08;;;;;;;;;;5056724;28;20380;-89
2023/06/15 11:33:30;;;;;;;;;;;;;;;;;;5058461;28;20037;-90
2023/06/15 11:35:56;;;;;;;29.77;18.00;;;;;;;;;;5032053;28;20442;-89
2023/06/15 11:38:29;;;;;;;28.60;18.25;;;;;;;;;;5039097;28;20025;-89
2023/06/15 11:41:06;;;;;;;27.45;18.80;;;;;;;;;;5007228;28;20128;-88
2023/06/15 11:43:42;;;;;;;25.67;18.35;;;;;;;;;;5021914;28;20025;-89
2023/06/15 11:46:17;;;;;;;37.47;23.30;;;;;;;;;;5051503;28;20021;-90
2023/06/15 11:48:43;;;;;;;40.55;27.77;;;;;;;;;;5058417;28;20091;-90
2023/06/15 11:51:12;;;;;;;24.42;18.33;;;;;;;;;;5042323;28;20364;-89
2023/06/15 11:53:41;;;;;;;25.48;18.42;;;;;;;;;;5038885;28;20013;-90
2023/06/15 11:56:12;;;;;;;34.28;18.00;;;;;;;;;;5053851;28;20044;-89
2023/06/15 11:58:38;;;;;;;25.45;18.33;;;;;;;;;;5039362;28;20366;-90
2023/06/15 12:01:04;;;;;;;28.40;18.90;;;;;;;;;;5038696;28;20033;-89
2023/06/15 12:03:31;;;;;;;29.00;18.65;;;;;;;;;;5022609;28;20448;-88
2023/06/15 12:05:57;;;;;;;31.83;19.05;;;;;;;;;;5053476;28;20555;-86
2023/06/15 12:08:26;;;;;;;25.35;17.80;;;;;;;;;;5019419;28;20065;-86
2023/06/15 12:10:52;;;;;;;24.98;17.17;;;;;;;;;;5037883;28;20352;-89
2023/06/15 12:13:18;;;;;;;22.83;17.15;;;;;;;;;;5019102;28;20040;-86
2023/06/15 12:15:46;;;;;;;25.85;17.30;;;;;;;;;;5003656;28;20029;-86
2023/06/15 12:18:12;;;;;;;38.60;25.38;;;;;;;;;;4980747;28;20070;-87
2023/06/15 12:20:37;;;;;;;32.90;18.60;;;;;;;;;;5001777;28;20069;-88
2023/06/15 12:23:04;;;;;;;24.30;17.38;;;;;;;;;;5032518;28;20034;-91
2023/06/15 12:25:43;;;;;;;20.83;17.08;;;;;;;;;;5001173;28;20042;-90
2023/06/15 12:28:20;;;;;;;23.10;17.05;;;;;;;;;;5032095;28;20026;-88
2023/06/15 12:30:47;;;;;;;31.58;17.52;;;;;;;;;;5020040;28;20025;-87
2023/06/15 12:33:31;;;;;;;25.25;18.45;;;;;;;;;;4982749;28;20137;-88
2023/06/15 12:36:01;;;;;;;26.80;18.60;;;;;;;;;;5034382;28;20385;-87
2023/06/15 12:38:27;;;;;;;27.65;18.27;;;;;;;;;;5030647;28;20057;-85
2023/06/15 12:40:53;;;;;;;27.67;19.40;;;;;;;;;;5031883;28;20042;-88
2023/06/15 12:43:22;;;;;;;26.33;19.92;;;;;;;;;;5015787;28;20040;-84
2023/06/15 12:45:48;;;;;;;28.00;20.00;;;;;;;;;;5014300;28;20030;-85
2023/06/15 12:48:14;;;;;;;28.65;21.60;;;;;;;;;;4996271;28;20018;-89
2023/06/15 12:50:39;;;;;;;30.85;21.90;;;;;;;;;;5013614;28;20336;-87
2023/06/15 12:53:05;;;;;;;31.50;22.83;;;;;;;;;;4983095;28;20106;-88
2023/06/15 12:55:30;;;;;;;34.97;23.00;;;;;;;;;;4999218;28;20026;-92
2023/06/15 12:57:56;;;;;;;36.80;24.27;;;;;;;;;;4999015;28;20033;-89
2023/06/15 13:00:25;;;;;;;40.05;25.77;;;;;;;;;;5015278;28;20030;-88
2023/06/15 13:02:51;;;;;;;;;;;;;;;;;;5031946;28;20053;-89
2023/06/15 13:05:18;;;;;;;42.72;28.40;;;;;;;;;;5049986;28;19913;-81
2023/06/15 13:07:44;;;;;;;48.38;29.45;;;;;;;;;;5017088;28;20052;-81
2023/06/15 13:10:10;;;;;;;48.55;30.30;;;;;;;;;;5050153;28;20041;-81
2023/06/15 13:12:38;;;;;;;53.70;32.05;;;;;;;;;;5017072;28;20033;-81
2023/06/15 13:15:05;;;;;;;52.25;32.53;;;;;;;;;;5049844;28;20032;-81
2023/06/15 13:17:31;;;;;;;52.35;30.73;;;;;;;;;;5033357;28;20041;-80
2023/06/15 13:19:57;;;;;;;46.42;30.33;;;;;;;;;;5033009;28;20040;-80
2023/06/15 13:22:22;;;;;;;44.63;27.67;;;;;;;;;;5033295;28;20460;-80
2023/06/15 13:24:47;;;;;;;42.60;27.13;;;;;;;;;;5034293;28;20037;-80
2023/06/15 13:27:13;;;;;;;40.25;27.67;;;;;;;;;;5016032;28;20029;-80
2023/06/15 13:29:38;;;;;;;43.25;29.02;;;;;;;;;;5049422;28;20047;-80
2023/06/15 13:32:05;;;;;;;42.53;27.73;;;;;;;;;;5034419;28;20372;-79
2023/06/15 13:34:31;;;;;;;41.38;27.17;;;;;;;;;;5049673;28;20064;-79
2023/06/15 13:36:56;;;;;;;40.40;27.58;;;;;;;;;;5016500;28;20076;-80
2023/06/15 13:39:21;;;;;;;47.65;28.20;;;;;;;;;;5033007;28;20033;-80
2023/06/15 13:41:47;;;;;;;44.95;28.60;;;;;;;;;;5049324;28;20022;-80
2023/06/15 13:44:12;;;;;;;41.05;26.42;;;;;;;;;;5049645;28;20029;-80
2023/06/15 13:46:38;;;;;;;33.28;23.95;;;;;;;;;;5032879;28;20111;-79
2023/06/15 13:49:04;;;;;;;34.13;24.27;;;;;;;;;;5049635;28;20022;-79
2023/06/15 13:51:30;;;;;;;32.25;22.83;;;;;;;;;;5049631;28;20021;-80
2023/06/15 13:53:56;;;;;;;31.45;22.88;;;;;;;;;;5032797;28;20075;-79
2023/06/15 13:56:24;;;;;;;34.03;22.52;;;;;;;;;;5032224;28;20120;-80
2023/06/15 13:58:53;;;;;;;33.63;22.58;;;;;;;;;;5049214;28;20033;-81
2023/06/15 14:01:22;;;;;;;32.13;21.42;;;;;;;;;;5032341;28;20041;-81
2023/06/15 14:03:51;;;;;;;30.40;21.77;;;;;;;;;;5048758;28;20529;-80
2023/06/15 14:06:17;;;;;;;32.78;23.42;;;;;;;;;;5049178;28;20029;-80
2023/06/15 14:08:42;;;;;;;33.00;22.23;;;;;;;;;;5032545;28;20030;-80
2023/06/15 14:11:08;;;;;;;32.67;22.42;;;;;;;;;;5032695;28;20026;-80
2023/06/15 14:13:33;;;;;;;31.95;22.90;;;;;;;;;;5033695;28;20440;-81
2023/06/15 14:15:59;;;;;;;32.40;22.70;;;;;;;;;;5049540;28;20029;-81
2023/06/15 14:18:25;;;;;;;35.60;22.20;;;;;;;;;;5049098;28;20052;-80